createdAt,value
2023-03-29T00:00:26.793Z,2.23
2023-03-29T00:05:26.109Z,2.40
2023-03-29T00:10:24.892Z,2.53
2023-03-29T00:15:23.606Z,2.68
2023-03-29T00:20:23.794Z,2.74
2023-03-29T00:25:22.480Z,2.33
2023-03-29T00:30:21.367Z,2.35
2023-03-29T00:35:20.680Z,2.22
2023-03-29T00:40:21.020Z,2.30
2023-03-29T00:45:22.412Z,2.04
2023-03-29T00:50:26.011Z,1.99
2023-03-29T00:55:28.928Z,1.94
2023-03-29T01:00:32.421Z,2.04
2023-03-29T01:05:37.733Z,1.86
2023-03-29T01:10:43.630Z,2.04
2023-03-29T01:15:46.068Z,1.81
2023-03-29T01:21:05.012Z,1.39
2023-03-29T01:26:16.091Z,1.49
2023-03-29T01:31:22.228Z,1.35
2023-03-29T01:36:27.498Z,1.37
2023-03-29T01:41:36.611Z,1.41
2023-03-29T01:46:44.426Z,1.53
2023-03-29T01:51:50.502Z,1.37
2023-03-29T01:56:51.899Z,1.33
2023-03-29T02:01:56.689Z,0.98
2023-03-29T02:07:01.068Z,1.04
2023-03-29T02:12:02.327Z,1.32
2023-03-29T02:17:22.358Z,1.26
2023-03-29T02:22:25.586Z,1.61
2023-03-29T02:27:24.334Z,1.43
2023-03-29T02:32:30.462Z,1.32
2023-03-29T02:37:31.523Z,1.38
2023-03-29T02:42:31.480Z,1.10
2023-03-29T02:47:35.015Z,1.23
2023-03-29T02:52:39.406Z,1.13
2023-03-29T02:57:41.028Z,0.94
2023-03-29T03:02:41.950Z,1.00
2023-03-29T03:07:42.585Z,1.02
2023-03-29T03:12:41.603Z,0.98
2023-03-29T03:17:42.003Z,0.94
2023-03-29T03:22:42.687Z,0.90
2023-03-29T03:27:41.467Z,0.81
2023-03-29T03:32:41.720Z,0.96
2023-03-29T03:37:59.148Z,0.96
2023-03-29T03:42:58.157Z,0.81
2023-03-29T03:47:58.498Z,0.97
2023-03-29T03:53:29.584Z,0.99
2023-03-29T03:58:47.729Z,0.64
2023-03-29T04:03:50.953Z,0.69
2023-03-29T04:08:51.764Z,0.74
2023-03-29T04:14:00.278Z,0.69
2023-03-29T04:19:10.468Z,0.75
2023-03-29T04:24:10.741Z,0.78
2023-03-29T04:29:13.129Z,1.01
2023-03-29T04:34:18.971Z,0.83
2023-03-29T04:39:19.337Z,0.94
2023-03-29T04:44:22.932Z,0.99
2023-03-29T04:49:25.988Z,1.04
2023-03-29T04:54:26.004Z,1.43
2023-03-29T04:59:41.520Z,1.18
2023-03-29T05:05:00.200Z,0.91
2023-03-29T05:09:59.829Z,0.95
2023-03-29T05:14:59.184Z,0.83
2023-03-29T05:20:01.549Z,0.82
2023-03-29T05:25:00.749Z,1.04
2023-03-29T05:29:59.759Z,1.26
2023-03-29T05:35:06.886Z,0.98
2023-03-29T05:40:10.479Z,1.14
2023-03-29T05:45:35.467Z,1.32
2023-03-29T05:50:36.960Z,1.37
2023-03-29T05:55:37.214Z,1.38
2023-03-29T06:00:37.193Z,1.61
2023-03-29T06:06:00.536Z,1.93
2023-03-29T06:11:04.546Z,1.90
2023-03-29T06:16:27.175Z,1.94
2023-03-29T06:21:28.623Z,2.11
2023-03-29T06:26:28.882Z,2.47
2023-03-29T06:31:27.947Z,2.47
2023-03-29T06:36:29.626Z,2.58
2023-03-29T06:41:28.583Z,2.86
2023-03-29T06:46:39.165Z,2.94
2023-03-29T06:51:42.261Z,2.82
2023-03-29T06:56:41.437Z,2.98
2023-03-29T07:01:47.348Z,3.20
2023-03-29T07:07:01.642Z,3.41
2023-03-29T07:12:02.552Z,3.67
2023-03-29T07:17:01.507Z,3.72
2023-03-29T07:22:11.329Z,3.99
2023-03-29T07:27:23.824Z,4.11
2023-03-29T07:32:22.911Z,4.04
2023-03-29T07:37:44.545Z,4.48
2023-03-29T07:42:45.066Z,4.95
2023-03-29T07:47:49.140Z,4.90
2023-03-29T07:52:50.246Z,5.28
2023-03-29T07:57:50.430Z,5.50
2023-03-29T08:02:52.358Z,5.66
2023-03-29T08:07:53.083Z,5.49
2023-03-29T08:13:11.917Z,6.20
2023-03-29T08:18:18.937Z,6.31
2023-03-29T08:23:19.216Z,6.62
2023-03-29T08:28:38.289Z,6.37
2023-03-29T08:33:37.741Z,6.60
2023-03-29T08:38:57.766Z,6.98
2023-03-29T08:44:10.901Z,6.80
2023-03-29T08:49:24.857Z,6.86
2023-03-29T08:54:28.115Z,7.02
2023-03-29T08:59:42.798Z,7.09
2023-03-29T09:04:44.239Z,7.15
2023-03-29T09:10:03.605Z,7.23
2023-03-29T09:15:19.619Z,7.74
2023-03-29T09:20:37.923Z,7.99
2023-03-29T09:25:54.147Z,7.49
2023-03-29T09:31:02.805Z,7.38
2023-03-29T09:36:08.968Z,6.88
2023-03-29T09:41:21.444Z,7.22
2023-03-29T09:46:26.036Z,6.83
2023-03-29T09:51:31.124Z,6.22
2023-03-29T09:56:31.922Z,6.55
2023-03-29T10:01:41.735Z,6.73
2023-03-29T10:06:47.207Z,6.48
2023-03-29T10:11:54.593Z,6.70
2023-03-29T10:16:57.599Z,7.02
2023-03-29T10:22:02.607Z,7.24
2023-03-29T10:27:04.642Z,6.79
2023-03-29T10:32:03.584Z,6.93
2023-03-29T10:37:02.705Z,6.93
2023-03-29T10:42:05.610Z,7.17
2023-03-29T10:47:14.986Z,7.72
2023-03-29T10:52:15.596Z,8.36
2023-03-29T10:57:22.787Z,8.58
2023-03-29T11:02:39.836Z,9.37
2023-03-29T11:07:47.936Z,9.87
2023-03-29T11:12:56.290Z,9.87
2023-03-29T11:18:07.718Z,10.96
2023-03-29T11:23:20.605Z,10.56
2023-03-29T11:28:34.808Z,10.09
2023-03-29T11:33:49.878Z,10.43
2023-03-29T11:38:59.603Z,11.34
2023-03-29T11:44:05.186Z,11.57
2023-03-29T11:49:11.368Z,11.12
2023-03-29T11:54:19.020Z,10.63
2023-03-29T11:59:24.387Z,10.30
2023-03-29T12:04:30.077Z,10.37
2023-03-29T12:09:34.244Z,10.15
2023-03-29T12:14:48.108Z,10.46
2023-03-29T12:19:53.216Z,10.34
2023-03-29T12:24:55.112Z,10.60
2023-03-29T12:30:23.524Z,10.43
2023-03-29T12:35:34.324Z,10.68
2023-03-29T12:40:57.801Z,10.83
2023-03-29T12:46:19.744Z,10.60
2023-03-29T12:51:21.165Z,10.79
2023-03-29T12:56:23.937Z,10.13
2023-03-29T13:01:31.369Z,10.32
2023-03-29T13:06:33.322Z,10.33
2023-03-29T13:11:36.306Z,10.39
2023-03-29T13:16:37.123Z,10.44
2023-03-29T13:21:47.846Z,10.86
2023-03-29T13:26:57.335Z,10.63
2023-03-29T13:32:06.722Z,10.17
2023-03-29T13:37:22.215Z,9.84
2023-03-29T13:42:26.171Z,10.32
2023-03-29T13:47:48.955Z,10.36
2023-03-29T13:53:04.195Z,10.17
2023-03-29T13:58:09.719Z,10.62
2023-03-29T14:03:15.038Z,10.35
2023-03-29T14:08:23.280Z,10.86
2023-03-29T14:13:25.615Z,10.97
2023-03-29T14:18:27.606Z,10.95
2023-03-29T14:23:30.456Z,11.00
2023-03-29T14:28:30.200Z,10.69
2023-03-29T14:33:33.540Z,10.74
2023-03-29T14:38:32.461Z,11.09
2023-03-29T14:43:33.078Z,11.70
2023-03-29T14:48:35.033Z,12.21
2023-03-29T14:53:37.156Z,12.84
2023-03-29T14:58:37.211Z,13.53
2023-03-29T15:03:46.172Z,14.20
2023-03-29T15:09:01.509Z,14.49
2023-03-29T15:14:06.752Z,15.04
2023-03-29T15:19:07.823Z,15.13
2023-03-29T15:24:11.134Z,15.03
2023-03-29T15:29:17.335Z,15.29
2023-03-29T15:34:34.691Z,14.59
2023-03-29T15:39:35.314Z,14.76
2023-03-29T15:44:36.809Z,14.80
2023-03-29T15:49:37.835Z,14.62
2023-03-29T15:54:37.353Z,14.08
2023-03-29T15:59:36.654Z,14.10
2023-03-29T16:04:35.825Z,14.55
2023-03-29T16:09:37.231Z,14.66
2023-03-29T16:14:36.406Z,14.75
2023-03-29T16:19:38.252Z,14.39
2023-03-29T16:24:38.795Z,13.74
2023-03-29T16:29:37.749Z,13.43
2023-03-29T16:34:38.399Z,12.99
2023-03-29T16:39:38.933Z,12.86
2023-03-29T16:44:39.400Z,12.58
2023-03-29T16:49:40.200Z,12.25
2023-03-29T16:54:43.873Z,11.77
2023-03-29T16:59:45.172Z,11.50
2023-03-29T17:04:44.036Z,11.20
2023-03-29T17:09:45.972Z,11.06
2023-03-29T17:14:44.784Z,10.68
2023-03-29T17:19:44.181Z,10.18
2023-03-29T17:24:44.755Z,10.02
2023-03-29T17:29:43.944Z,9.89
2023-03-29T17:34:43.034Z,9.43
2023-03-29T17:39:42.274Z,9.19
2023-03-29T17:44:43.026Z,8.96
2023-03-29T17:49:42.473Z,8.68
2023-03-29T17:54:41.932Z,8.48
2023-03-29T17:59:42.338Z,7.96
2023-03-29T18:04:45.030Z,7.42
2023-03-29T18:09:44.475Z,7.02
2023-03-29T18:14:44.963Z,7.05
2023-03-29T18:19:43.997Z,6.83
2023-03-29T18:24:42.805Z,6.66
2023-03-29T18:29:41.981Z,6.71
2023-03-29T18:34:45.708Z,6.63
2023-03-29T18:39:44.899Z,6.15
2023-03-29T18:44:44.069Z,5.96
2023-03-29T18:49:44.228Z,6.32
2023-03-29T18:54:43.095Z,6.69
2023-03-29T18:59:47.817Z,6.60
2023-03-29T19:04:48.308Z,6.52
2023-03-29T19:09:47.101Z,6.47
2023-03-29T19:14:45.927Z,6.37
2023-03-29T19:19:44.800Z,6.44
2023-03-29T19:24:45.041Z,6.37
2023-03-29T19:29:44.180Z,6.37
2023-03-29T19:34:43.067Z,6.50
2023-03-29T19:39:42.208Z,6.59
2023-03-29T19:44:42.443Z,6.60
2023-03-29T19:49:41.357Z,6.56
2023-03-29T19:54:40.244Z,6.41
2023-03-29T19:59:40.832Z,6.11
2023-03-29T20:04:41.306Z,6.10
2023-03-29T20:09:40.832Z,6.14
2023-03-29T20:14:43.406Z,6.11
2023-03-29T20:19:44.220Z,6.07
2023-03-29T20:24:43.796Z,5.88
2023-03-29T20:29:42.923Z,5.82
2023-03-29T20:34:43.221Z,5.65
2023-03-29T20:39:41.981Z,5.49
2023-03-29T20:44:40.856Z,5.57
2023-03-29T20:49:43.166Z,5.62
2023-03-29T20:54:42.218Z,5.49
2023-03-29T20:59:41.685Z,5.46
2023-03-29T21:04:40.790Z,5.24
2023-03-29T21:09:42.303Z,5.34
2023-03-29T21:14:41.068Z,5.45
2023-03-29T21:19:40.267Z,5.47
2023-03-29T21:24:40.451Z,5.57
2023-03-29T21:29:39.563Z,5.52
2023-03-29T21:34:38.407Z,5.24
2023-03-29T21:39:37.142Z,5.18
2023-03-29T21:44:37.383Z,5.35
2023-03-29T21:49:36.393Z,5.46
2023-03-29T21:54:35.324Z,5.38
2023-03-29T21:59:34.118Z,5.33
2023-03-29T22:04:36.955Z,5.25
2023-03-29T22:09:36.623Z,5.30
2023-03-29T22:14:35.796Z,5.32
2023-03-29T22:19:39.214Z,5.30
2023-03-29T22:24:38.388Z,5.35
2023-03-29T22:29:37.343Z,5.39
2023-03-29T22:34:37.633Z,5.37
2023-03-29T22:39:36.865Z,5.39
2023-03-29T22:44:36.187Z,5.24
2023-03-29T22:49:35.154Z,5.21
2023-03-29T22:54:35.630Z,5.25
2023-03-29T22:59:34.627Z,5.15
2023-03-29T23:04:33.500Z,5.11
2023-03-29T23:09:32.554Z,4.95
2023-03-29T23:14:33.881Z,4.92
2023-03-29T23:19:32.971Z,4.97
2023-03-29T23:24:31.941Z,5.01
2023-03-29T23:29:32.068Z,4.95
2023-03-29T23:34:31.042Z,4.83
2023-03-29T23:39:29.744Z,4.68
2023-03-29T23:44:28.744Z,4.63
2023-03-29T23:49:30.146Z,4.64
2023-03-29T23:54:29.184Z,4.20
2023-03-29T23:59:30.902Z,4.13
